createdAt,value
2017-04-13T00:00:36.537Z,0
2017-04-13T00:01:46.148Z,0
2017-04-13T00:02:56.350Z,0
2017-04-13T00:04:06.705Z,0
2017-04-13T00:05:16.312Z,0
2017-04-13T00:06:26.521Z,0
2017-04-13T00:07:36.133Z,0
2017-04-13T00:08:46.073Z,0
2017-04-13T00:09:56.656Z,0
2017-04-13T00:11:06.870Z,0
2017-04-13T00:12:16.774Z,0
2017-04-13T00:13:27.000Z,0
2017-04-13T00:14:36.903Z,0
2017-04-13T00:15:47.066Z,0
2017-04-13T00:16:56.982Z,0
2017-04-13T00:18:06.887Z,0
2017-04-13T00:19:16.802Z,0
2017-04-13T00:20:26.720Z,0
2017-04-13T00:21:37.234Z,0
2017-04-13T00:22:47.145Z,0
2017-04-13T00:23:57.355Z,0
2017-04-13T00:25:07.252Z,0
2017-04-13T00:26:17.471Z,0
2017-04-13T00:27:27.850Z,0
2017-04-13T00:28:37.759Z,0
2017-04-13T00:29:47.699Z,0
2017-04-13T00:30:57.625Z,0
2017-04-13T00:32:07.554Z,0
2017-04-13T00:33:17.768Z,0
2017-04-13T00:34:27.384Z,0
2017-04-13T00:35:37.300Z,0
2017-04-13T00:36:47.215Z,0
2017-04-13T00:37:57.136Z,0
2017-04-13T00:39:07.295Z,0
2017-04-13T00:40:16.900Z,0
2017-04-13T00:41:26.804Z,0
2017-04-13T00:42:36.725Z,0
2017-04-13T00:43:46.944Z,0
2017-04-13T00:44:57.107Z,0
2017-04-13T00:46:07.028Z,0
2017-04-13T00:47:17.247Z,0
2017-04-13T00:48:26.537Z,0
2017-04-13T00:49:36.152Z,0
2017-04-13T00:50:46.362Z,0
2017-04-13T00:51:56.579Z,0
2017-04-13T00:53:06.796Z,0
2017-04-13T00:54:16.093Z,0
2017-04-13T00:55:26.033Z,0
2017-04-13T00:56:36.607Z,0
2017-04-13T00:57:46.526Z,0
2017-04-13T00:58:56.753Z,0
2017-04-13T01:00:06.973Z,0
2017-04-13T01:01:17.181Z,0
2017-04-13T01:02:27.389Z,0
2017-04-13T01:03:37.591Z,0
2017-04-13T01:04:46.883Z,0
2017-04-13T01:05:56.492Z,0
2017-04-13T01:07:06.720Z,0
2017-04-13T01:08:16.475Z,0
2017-04-13T01:09:26.424Z,0
2017-04-13T01:10:36.028Z,0
2017-04-13T01:11:45.940Z,0
2017-04-13T01:12:56.159Z,0
2017-04-13T01:14:06.119Z,0
2017-04-13T01:15:15.723Z,0
2017-04-13T01:16:25.660Z,0
2017-04-13T01:17:35.582Z,0
2017-04-13T01:18:45.182Z,0
2017-04-13T01:19:55.230Z,0
2017-04-13T01:21:05.153Z,0
2017-04-13T01:22:15.118Z,0
2017-04-13T01:23:25.335Z,0
2017-04-13T01:24:35.252Z,0
2017-04-13T01:25:45.507Z,0
2017-04-13T01:26:55.732Z,0
2017-04-13T01:28:05.943Z,0
2017-04-13T01:29:15.564Z,0
2017-04-13T01:30:25.182Z,0
2017-04-13T01:31:34.778Z,0
2017-04-13T01:32:44.687Z,0
2017-04-13T01:33:54.588Z,0
2017-04-13T01:35:05.010Z,0
2017-04-13T01:36:14.925Z,0
2017-04-13T01:37:24.800Z,0
2017-04-13T01:38:34.710Z,0
2017-04-13T01:39:44.311Z,0
2017-04-13T01:40:54.227Z,0
2017-04-13T01:42:04.136Z,0
2017-04-13T01:43:14.662Z,0
2017-04-13T01:44:24.591Z,0
2017-04-13T01:45:34.499Z,0
2017-04-13T01:46:44.134Z,0
2017-04-13T01:47:54.355Z,0
2017-04-13T01:49:04.102Z,0
2017-04-13T01:50:14.323Z,0
2017-04-13T01:51:24.555Z,0
2017-04-13T01:52:34.460Z,0
2017-04-13T01:53:44.073Z,0
2017-04-13T01:54:53.771Z,0
2017-04-13T01:56:03.990Z,0
2017-04-13T01:57:13.884Z,0
2017-04-13T01:58:24.103Z,0
2017-04-13T01:59:34.323Z,0
2017-04-13T02:00:43.778Z,0
2017-04-13T02:01:53.692Z,0
2017-04-13T02:03:03.280Z,0
2017-04-13T02:04:13.187Z,0
2017-04-13T02:05:22.496Z,0
2017-04-13T02:06:32.266Z,0
2017-04-13T02:07:42.179Z,0
2017-04-13T02:08:52.438Z,0
2017-04-13T02:10:02.358Z,0
2017-04-13T02:11:12.266Z,0
2017-04-13T02:12:22.589Z,0
2017-04-13T02:13:32.515Z,0
2017-04-13T02:14:42.726Z,0
2017-04-13T02:15:52.969Z,0
2017-04-13T02:17:03.202Z,0
2017-04-13T02:18:13.370Z,0
2017-04-13T02:19:22.976Z,0
2017-04-13T02:20:33.186Z,0
2017-04-13T02:21:42.789Z,0
2017-04-13T02:22:52.996Z,0
2017-04-13T02:24:02.955Z,0
2017-04-13T02:25:12.566Z,0
2017-04-13T02:26:22.161Z,0
2017-04-13T02:27:31.765Z,0
2017-04-13T02:28:41.980Z,0
2017-04-13T02:29:52.243Z,0
2017-04-13T02:31:01.533Z,0
2017-04-13T02:32:10.820Z,0
2017-04-13T02:33:20.725Z,0
2017-04-13T02:34:30.940Z,0
2017-04-13T02:35:40.996Z,0
2017-04-13T02:36:50.290Z,0
2017-04-13T02:38:00.191Z,0
2017-04-13T02:39:10.398Z,0
2017-04-13T02:40:20.618Z,0
2017-04-13T02:41:30.937Z,0
2017-04-13T02:42:40.839Z,0
2017-04-13T02:43:50.457Z,0
2017-04-13T02:45:00.378Z,0
2017-04-13T02:46:10.292Z,0
2017-04-13T02:47:20.369Z,0
2017-04-13T02:48:30.282Z,0
2017-04-13T02:49:40.191Z,0
2017-04-13T02:50:50.102Z,0
2017-04-13T02:51:59.721Z,0
2017-04-13T02:53:09.725Z,0
2017-04-13T02:54:19.949Z,0
2017-04-13T02:55:29.851Z,0
2017-04-13T02:56:40.062Z,0
2017-04-13T02:57:50.287Z,0
2017-04-13T02:59:00.504Z,0
2017-04-13T03:00:09.810Z,0
2017-04-13T03:01:19.117Z,0
2017-04-13T03:02:29.339Z,0
2017-04-13T03:03:39.238Z,0
2017-04-13T03:04:48.883Z,0
2017-04-13T03:05:59.107Z,0
2017-04-13T03:07:09.325Z,0
2017-04-13T03:08:19.229Z,0
2017-04-13T03:09:29.449Z,0
2017-04-13T03:10:39.453Z,0
2017-04-13T03:11:49.372Z,0
2017-04-13T03:12:59.595Z,0
2017-04-13T03:14:08.879Z,0
2017-04-13T03:15:19.104Z,0
2017-04-13T03:16:29.158Z,0
2017-04-13T03:17:39.079Z,0
2017-04-13T03:18:48.407Z,0
2017-04-13T03:19:57.704Z,0
2017-04-13T03:21:07.913Z,0
2017-04-13T03:22:18.077Z,0
2017-04-13T03:23:27.989Z,0
2017-04-13T03:24:37.897Z,0
2017-04-13T03:25:47.819Z,0
2017-04-13T03:26:57.431Z,0
2017-04-13T03:28:07.283Z,0
2017-04-13T03:29:17.506Z,0
2017-04-13T03:30:27.723Z,0
2017-04-13T03:31:37.692Z,0
2017-04-13T03:32:46.975Z,0
2017-04-13T03:33:56.829Z,0
2017-04-13T03:35:06.772Z,0
2017-04-13T03:36:16.989Z,0
2017-04-13T03:37:26.598Z,0
2017-04-13T03:38:36.808Z,0
2017-04-13T03:39:46.613Z,0
2017-04-13T03:40:56.593Z,0
2017-04-13T03:42:06.485Z,0
2017-04-13T03:43:16.705Z,0
2017-04-13T03:44:26.696Z,0
2017-04-13T03:45:37.056Z,0
2017-04-13T03:46:46.657Z,0
2017-04-13T03:47:56.569Z,0
2017-04-13T03:49:37.946Z,0
2017-04-13T03:50:48.006Z,0
2017-04-13T03:51:57.915Z,0
2017-04-13T03:53:07.834Z,0
2017-04-13T03:54:17.753Z,0
2017-04-13T03:55:27.349Z,0
2017-04-13T03:56:37.160Z,0
2017-04-13T03:57:47.383Z,0
2017-04-13T03:58:57.306Z,0
2017-04-13T04:00:07.535Z,0
2017-04-13T04:01:17.760Z,0
2017-04-13T04:02:28.141Z,0
2017-04-13T04:03:38.068Z,0
2017-04-13T04:04:48.018Z,0
2017-04-13T04:05:57.937Z,0
2017-04-13T04:07:07.850Z,0
2017-04-13T04:08:17.896Z,0
2017-04-13T04:09:27.790Z,0
2017-04-13T04:10:37.701Z,0
2017-04-13T04:11:47.364Z,0
2017-04-13T04:12:57.266Z,0
2017-04-13T04:14:07.280Z,0
2017-04-13T04:15:16.887Z,0
2017-04-13T04:16:26.799Z,0
2017-04-13T04:17:36.401Z,0
2017-04-13T04:18:46.605Z,0
2017-04-13T04:19:56.362Z,0
2017-04-13T04:21:06.258Z,0
2017-04-13T04:22:16.485Z,0
2017-04-13T04:23:26.087Z,0
2017-04-13T04:24:35.711Z,0
2017-04-13T04:25:45.732Z,0
2017-04-13T04:26:55.939Z,0
2017-04-13T04:28:05.232Z,0
2017-04-13T04:29:15.150Z,0
2017-04-13T04:30:24.141Z,4
2017-04-13T04:31:34.350Z,4
2017-04-13T04:32:44.252Z,4
2017-04-13T04:33:53.578Z,4
2017-04-13T04:35:03.184Z,8
2017-04-13T04:36:12.786Z,4
2017-04-13T04:37:22.805Z,8
2017-04-13T04:38:33.019Z,8
2017-04-13T04:39:42.916Z,12
2017-04-13T04:40:52.510Z,16
2017-04-13T04:42:02.767Z,16
2017-04-13T04:43:12.536Z,24
2017-04-13T04:44:22.451Z,32
2017-04-13T04:45:32.348Z,28
2017-04-13T04:46:42.262Z,28
2017-04-13T04:47:52.213Z,32
2017-04-13T04:49:02.322Z,40
2017-04-13T04:50:12.232Z,64
2017-04-13T04:51:21.840Z,72
2017-04-13T04:52:32.049Z,96
2017-04-13T04:53:41.970Z,92
2017-04-13T04:54:52.341Z,68
2017-04-13T04:56:02.561Z,36
2017-04-13T04:57:12.491Z,32
2017-04-13T04:58:22.397Z,36
2017-04-13T04:59:31.984Z,48
2017-04-13T05:00:41.778Z,60
2017-04-13T05:01:51.992Z,64
2017-04-13T05:03:01.935Z,72
2017-04-13T05:04:11.563Z,108
2017-04-13T05:05:21.785Z,84
2017-04-13T05:06:32.141Z,168
2017-04-13T05:07:41.736Z,136
2017-04-13T05:08:51.938Z,180
2017-04-13T05:10:02.181Z,232
2017-04-13T05:11:11.512Z,164
2017-04-13T05:12:21.925Z,104
2017-04-13T05:13:31.578Z,124
2017-04-13T05:14:41.178Z,160
2017-04-13T05:15:51.441Z,212
2017-04-13T05:17:01.359Z,196
2017-04-13T05:18:11.130Z,268
2017-04-13T05:19:21.048Z,496
2017-04-13T05:20:31.297Z,608
2017-04-13T05:21:41.220Z,712
2017-04-13T05:22:51.157Z,612
2017-04-13T05:24:01.533Z,568
2017-04-13T05:25:11.463Z,688
2017-04-13T05:26:21.404Z,876
2017-04-13T05:27:31.007Z,1076
2017-04-13T05:28:40.944Z,1236
2017-04-13T05:29:51.314Z,1180
2017-04-13T05:31:01.533Z,1236
2017-04-13T05:32:11.493Z,1280
2017-04-13T05:33:21.207Z,1588
2017-04-13T05:34:31.126Z,1436
2017-04-13T05:35:40.690Z,1352
2017-04-13T05:36:50.296Z,1024
2017-04-13T05:38:00.507Z,1200
2017-04-13T05:39:10.111Z,1008
2017-04-13T05:40:20.340Z,860
2017-04-13T05:41:30.395Z,768
2017-04-13T05:42:40.616Z,520
2017-04-13T05:43:50.530Z,548
2017-04-13T05:45:00.130Z,468
2017-04-13T05:46:09.120Z,544
2017-04-13T05:47:19.481Z,420
2017-04-13T05:48:28.836Z,304
2017-04-13T05:49:38.742Z,456
2017-04-13T05:50:48.651Z,460
2017-04-13T05:51:58.565Z,600
2017-04-13T05:53:08.617Z,508
2017-04-13T05:54:18.217Z,340
2017-04-13T05:55:28.434Z,316
2017-04-13T05:56:38.653Z,336
2017-04-13T05:57:48.561Z,280
2017-04-13T05:58:59.003Z,332
2017-04-13T06:00:08.605Z,220
2017-04-13T06:01:18.533Z,236
2017-04-13T06:02:28.144Z,256
2017-04-13T06:03:37.441Z,324
2017-04-13T06:04:47.511Z,328
2017-04-13T06:05:57.730Z,420
2017-04-13T06:07:07.362Z,476
2017-04-13T06:08:17.262Z,568
2017-04-13T06:09:27.161Z,940
2017-04-13T06:10:37.533Z,1040
2017-04-13T06:11:47.754Z,1252
2017-04-13T06:12:57.973Z,1764
2017-04-13T06:14:08.230Z,2280
2017-04-13T06:15:18.131Z,2108
2017-04-13T06:16:27.897Z,1784
2017-04-13T06:17:38.111Z,1480
2017-04-13T06:18:48.067Z,1164
2017-04-13T06:19:57.367Z,1084
2017-04-13T06:21:07.584Z,1296
2017-04-13T06:22:17.970Z,1368
2017-04-13T06:23:27.881Z,1380
2017-04-13T06:24:37.176Z,1332
2017-04-13T06:25:47.433Z,1196
2017-04-13T06:26:57.658Z,960
2017-04-13T06:28:07.734Z,1004
2017-04-13T06:29:17.979Z,1224
2017-04-13T06:30:27.912Z,1388
2017-04-13T06:31:37.872Z,1400
2017-04-13T06:32:48.093Z,1396
2017-04-13T06:33:58.142Z,1276
2017-04-13T06:35:08.066Z,1040
2017-04-13T06:36:17.364Z,1016
2017-04-13T06:37:27.600Z,1256
2017-04-13T06:38:37.832Z,2240
2017-04-13T06:39:47.532Z,3688
2017-04-13T06:40:57.458Z,4072
2017-04-13T06:42:07.387Z,4660
2017-04-13T06:43:17.620Z,5248
2017-04-13T06:44:27.231Z,4568
2017-04-13T06:45:36.922Z,4556
2017-04-13T06:46:46.534Z,3324
2017-04-13T06:47:56.750Z,2612
2017-04-13T06:49:06.684Z,2444
2017-04-13T06:50:16.608Z,2072
2017-04-13T06:51:26.621Z,2364
2017-04-13T06:52:35.931Z,2860
2017-04-13T06:53:45.883Z,3212
2017-04-13T06:54:55.794Z,2808
2017-04-13T06:56:06.052Z,2752
2017-04-13T06:57:15.771Z,3308
2017-04-13T06:58:26.001Z,3500
2017-04-13T06:59:36.268Z,3136
2017-04-13T07:00:46.489Z,2560
2017-04-13T07:01:56.711Z,3432
2017-04-13T07:03:06.100Z,3208
2017-04-13T07:04:15.723Z,3348
2017-04-13T07:05:25.670Z,3640
2017-04-13T07:06:35.266Z,3356
2017-04-13T07:07:45.179Z,3860
2017-04-13T07:08:55.558Z,5160
2017-04-13T07:10:05.788Z,4200
2017-04-13T07:11:15.717Z,4244
2017-04-13T07:12:25.618Z,4064
2017-04-13T07:13:36.208Z,4000
2017-04-13T07:14:46.578Z,3760
2017-04-13T07:15:56.785Z,3460
2017-04-13T07:17:07.004Z,3352
2017-04-13T07:18:16.297Z,3052
2017-04-13T07:19:26.217Z,2692
2017-04-13T07:20:36.279Z,2352
2017-04-13T07:21:46.187Z,2344
2017-04-13T07:22:56.107Z,2416
2017-04-13T07:24:06.016Z,2340
2017-04-13T07:25:16.233Z,2376
2017-04-13T07:26:26.296Z,2328
2017-04-13T07:27:35.916Z,2168
2017-04-13T07:28:45.526Z,2092
2017-04-13T07:29:55.240Z,2072
2017-04-13T07:31:04.532Z,2228
2017-04-13T07:32:14.608Z,2296
2017-04-13T07:33:24.221Z,2236
2017-04-13T07:34:33.749Z,2320
2017-04-13T07:35:43.439Z,2176
2017-04-13T07:36:52.419Z,1760
2017-04-13T07:38:02.778Z,2020
2017-04-13T07:39:12.091Z,2084
2017-04-13T07:40:22.326Z,2212
2017-04-13T07:41:32.256Z,1692
2017-04-13T07:42:41.853Z,1248
2017-04-13T07:43:51.612Z,976
2017-04-13T07:45:01.520Z,1260
2017-04-13T07:46:11.126Z,1116
2017-04-13T07:47:21.350Z,1048
2017-04-13T07:48:30.979Z,920
2017-04-13T07:49:40.748Z,716
2017-04-13T07:50:50.676Z,856
2017-04-13T07:52:00.596Z,1112
2017-04-13T07:53:10.239Z,1596
2017-04-13T07:54:20.473Z,1520
2017-04-13T07:55:30.881Z,1344
2017-04-13T07:56:40.527Z,1476
2017-04-13T07:57:50.475Z,1428
2017-04-13T07:59:00.396Z,1272
2017-04-13T08:00:10.610Z,1280
2017-04-13T08:01:20.385Z,1052
2017-04-13T08:02:30.003Z,968
2017-04-13T08:03:39.620Z,1348
2017-04-13T08:04:48.636Z,1420
2017-04-13T08:05:58.560Z,1440
2017-04-13T08:07:08.361Z,1476
2017-04-13T08:08:18.315Z,1284
2017-04-13T08:09:28.245Z,1100
2017-04-13T08:10:38.479Z,1696
2017-04-13T08:11:48.392Z,1736
2017-04-13T08:12:58.467Z,1348
2017-04-13T08:14:07.813Z,1400
2017-04-13T08:15:18.064Z,1440
2017-04-13T08:16:27.058Z,1256
2017-04-13T08:17:36.664Z,1060
2017-04-13T08:18:46.804Z,948
2017-04-13T08:19:56.169Z,776
2017-04-13T08:21:06.191Z,668
2017-04-13T08:22:16.161Z,660
2017-04-13T08:23:26.096Z,672
2017-04-13T08:24:35.830Z,800
2017-04-13T08:25:45.462Z,828
2017-04-13T08:26:54.915Z,764
2017-04-13T08:28:05.160Z,788
2017-04-13T08:29:15.101Z,948
2017-04-13T08:30:25.189Z,960
2017-04-13T08:31:35.177Z,956
2017-04-13T08:32:45.143Z,1140
2017-04-13T08:33:54.777Z,1248
2017-04-13T08:35:04.401Z,1320
2017-04-13T08:36:14.482Z,1548
2017-04-13T08:37:24.788Z,1576
2017-04-13T08:38:34.389Z,1588
2017-04-13T08:39:44.639Z,1432
2017-04-13T08:40:53.949Z,1492
2017-04-13T08:42:03.720Z,1784
2017-04-13T08:43:13.947Z,1852
2017-04-13T08:44:23.554Z,2060
2017-04-13T08:45:33.160Z,1896
2017-04-13T08:46:42.467Z,1756
2017-04-13T08:47:51.966Z,1772
2017-04-13T08:49:01.300Z,1588
2017-04-13T08:50:10.904Z,1296
2017-04-13T08:51:20.509Z,1240
2017-04-13T08:52:30.134Z,1184
2017-04-13T08:53:40.201Z,1044
2017-04-13T08:54:50.115Z,944
2017-04-13T08:55:59.713Z,1012
2017-04-13T08:57:09.635Z,996
2017-04-13T08:58:19.268Z,780
2017-04-13T08:59:28.404Z,612
2017-04-13T09:00:38.311Z,532
2017-04-13T09:01:47.921Z,512
2017-04-13T09:02:57.841Z,444
2017-04-13T09:04:07.447Z,444
2017-04-13T09:05:17.653Z,500
2017-04-13T09:06:27.264Z,572
2017-04-13T09:07:36.263Z,580
2017-04-13T09:08:46.179Z,604
2017-04-13T09:09:55.770Z,568
2017-04-13T09:11:04.931Z,740
2017-04-13T09:12:14.836Z,1184
2017-04-13T09:13:25.078Z,1688
2017-04-13T09:14:35.000Z,1752
2017-04-13T09:15:44.600Z,1756
2017-04-13T09:16:54.348Z,1824
2017-04-13T09:18:04.307Z,1908
2017-04-13T09:19:14.212Z,2164
2017-04-13T09:20:24.436Z,2416
2017-04-13T09:21:34.659Z,2640
2017-04-13T09:22:44.733Z,3068
2017-04-13T09:23:54.354Z,3476
2017-04-13T09:25:03.656Z,3772
2017-04-13T09:26:12.971Z,3372
2017-04-13T09:27:22.928Z,2844
2017-04-13T09:28:33.291Z,2588
2017-04-13T09:29:43.199Z,2448
2017-04-13T09:30:53.436Z,2356
2017-04-13T09:32:03.418Z,2332
2017-04-13T09:33:13.336Z,1980
2017-04-13T09:34:23.402Z,1688
2017-04-13T09:35:33.307Z,1680
2017-04-13T09:36:42.907Z,1780
2017-04-13T09:37:52.514Z,1504
2017-04-13T09:39:02.434Z,1272
2017-04-13T09:40:11.889Z,1068
2017-04-13T09:41:21.502Z,804
2017-04-13T09:42:31.417Z,588
2017-04-13T09:43:41.423Z,476
2017-04-13T09:44:50.716Z,436
2017-04-13T09:46:00.782Z,592
2017-04-13T09:47:10.689Z,656
2017-04-13T09:48:20.929Z,548
2017-04-13T09:49:30.255Z,524
2017-04-13T09:50:40.182Z,592
2017-04-13T09:51:49.633Z,600
2017-04-13T09:52:59.252Z,600
2017-04-13T09:54:09.164Z,600
2017-04-13T09:55:19.393Z,624
2017-04-13T09:56:29.301Z,640
2017-04-13T09:57:39.381Z,708
2017-04-13T09:58:48.678Z,820
2017-04-13T09:59:58.581Z,936
2017-04-13T10:01:07.877Z,1096
2017-04-13T10:02:17.785Z,1248
2017-04-13T10:03:27.845Z,1308
2017-04-13T10:04:38.068Z,1384
2017-04-13T10:05:47.997Z,1524
2017-04-13T10:06:57.922Z,1568
2017-04-13T10:08:07.840Z,1628
2017-04-13T10:09:18.165Z,1660
2017-04-13T10:10:27.773Z,1804
2017-04-13T10:11:37.087Z,2020
2017-04-13T10:12:46.688Z,2064
2017-04-13T10:13:56.002Z,2108
2017-04-13T10:15:05.707Z,2052
2017-04-13T10:16:15.626Z,1780
2017-04-13T10:17:25.851Z,1592
2017-04-13T10:18:35.777Z,1368
2017-04-13T10:19:45.469Z,1060
2017-04-13T10:20:55.481Z,876
2017-04-13T10:22:05.091Z,816
2017-04-13T10:23:14.716Z,856
2017-04-13T10:24:24.628Z,872
2017-04-13T10:25:34.580Z,924
2017-04-13T10:26:44.893Z,960
2017-04-13T10:27:54.497Z,1024
2017-04-13T10:29:04.735Z,1168
2017-04-13T10:30:14.968Z,1308
2017-04-13T10:31:24.585Z,1520
2017-04-13T10:32:34.314Z,1760
2017-04-13T10:33:44.301Z,2036
2017-04-13T10:34:53.952Z,2012
2017-04-13T10:36:03.889Z,1788
2017-04-13T10:37:13.494Z,1768
2017-04-13T10:38:22.972Z,2052
2017-04-13T10:39:32.288Z,2424
2017-04-13T10:40:42.529Z,2480
2017-04-13T10:41:52.130Z,2012
2017-04-13T10:43:01.528Z,1596
2017-04-13T10:44:11.887Z,1228
2017-04-13T10:45:21.808Z,1024
2017-04-13T10:46:31.535Z,1048
2017-04-13T10:47:41.147Z,1000
2017-04-13T10:48:50.443Z,816
2017-04-13T10:49:59.953Z,700
2017-04-13T10:51:10.203Z,732
2017-04-13T10:52:20.134Z,784
2017-04-13T10:53:29.479Z,772
2017-04-13T10:54:39.410Z,764
2017-04-13T10:55:48.865Z,800
2017-04-13T10:56:58.775Z,832
2017-04-13T10:58:08.398Z,868
2017-04-13T10:59:18.316Z,924
2017-04-13T11:00:28.255Z,988
2017-04-13T11:01:38.625Z,992
2017-04-13T11:02:48.544Z,1012
2017-04-13T11:03:58.137Z,1040
2017-04-13T11:05:07.767Z,1180
2017-04-13T11:06:17.689Z,1448
2017-04-13T11:07:27.879Z,1696
2017-04-13T11:08:37.210Z,2024
2017-04-13T11:09:47.447Z,2176
2017-04-13T11:10:57.364Z,2268
2017-04-13T11:12:07.047Z,2428
2017-04-13T11:13:17.467Z,2508
2017-04-13T11:14:27.082Z,2696
2017-04-13T11:15:37.314Z,2960
2017-04-13T11:16:47.235Z,3020
2017-04-13T11:17:57.493Z,3260
2017-04-13T11:19:07.881Z,3380
2017-04-13T11:20:17.812Z,3460
2017-04-13T11:21:28.026Z,3348
2017-04-13T11:22:37.948Z,3284
2017-04-13T11:23:47.917Z,2912
2017-04-13T11:24:58.012Z,2856
2017-04-13T11:26:08.634Z,2640
2017-04-13T11:27:17.969Z,2488
2017-04-13T11:28:27.903Z,2600
2017-04-13T11:29:37.523Z,2964
2017-04-13T11:30:47.291Z,3276
2017-04-13T11:31:57.217Z,2964
2017-04-13T11:33:07.130Z,2896
2017-04-13T11:34:16.450Z,2836
2017-04-13T11:35:26.096Z,2856
2017-04-13T11:36:36.256Z,3064
2017-04-13T11:37:45.850Z,2792
2017-04-13T11:38:55.780Z,1968
2017-04-13T11:40:05.700Z,1576
2017-04-13T11:41:15.915Z,1412
2017-04-13T11:42:26.289Z,1132
2017-04-13T11:43:35.589Z,1156
2017-04-13T11:44:45.504Z,1488
2017-04-13T11:45:55.113Z,1564
2017-04-13T11:47:04.729Z,1404
2017-04-13T11:48:14.488Z,1408
2017-04-13T11:49:24.409Z,1412
2017-04-13T11:50:33.748Z,1508
2017-04-13T11:51:43.060Z,1984
2017-04-13T11:52:52.679Z,2016
2017-04-13T11:54:02.745Z,1900
2017-04-13T11:55:12.666Z,1688
2017-04-13T11:56:22.261Z,1556
2017-04-13T11:57:32.178Z,1616
2017-04-13T11:58:41.789Z,1840
2017-04-13T11:59:52.163Z,2200
2017-04-13T12:01:01.771Z,2412
2017-04-13T12:02:11.398Z,2472
2017-04-13T12:03:21.630Z,2528
2017-04-13T12:04:30.946Z,2708
2017-04-13T12:05:40.655Z,2820
2017-04-13T12:06:50.875Z,2804
2017-04-13T12:07:59.865Z,2660
2017-04-13T12:09:09.828Z,2652
2017-04-13T12:10:18.852Z,2668
2017-04-13T12:11:28.571Z,2724
2017-04-13T12:12:38.800Z,2780
2017-04-13T12:13:48.410Z,2724
2017-04-13T12:14:58.634Z,2636
2017-04-13T12:16:07.958Z,2600
2017-04-13T12:17:18.270Z,2372
2017-04-13T12:18:27.908Z,2304
2017-04-13T12:19:37.521Z,2436
2017-04-13T12:20:47.122Z,2608
2017-04-13T12:21:56.743Z,2776
2017-04-13T12:23:06.754Z,2936
2017-04-13T12:24:16.376Z,3012
2017-04-13T12:25:25.999Z,2808
2017-04-13T12:26:36.209Z,2624
2017-04-13T12:27:46.127Z,2412
2017-04-13T12:28:56.142Z,2392
2017-04-13T12:30:05.770Z,2176
2017-04-13T12:31:15.995Z,2056
2017-04-13T12:32:25.604Z,1772
2017-04-13T12:33:35.221Z,1488
2017-04-13T12:34:45.228Z,1444
2017-04-13T12:35:55.143Z,1580
2017-04-13T12:37:04.433Z,1676
2017-04-13T12:38:14.084Z,1760
2017-04-13T12:39:23.692Z,1584
2017-04-13T12:40:33.734Z,1596
2017-04-13T12:41:43.330Z,1648
2017-04-13T12:42:53.250Z,1780
2017-04-13T12:44:03.466Z,1796
2017-04-13T12:45:13.373Z,1872
2017-04-13T12:46:23.706Z,2028
2017-04-13T12:47:33.365Z,2228
2017-04-13T12:48:42.717Z,2456
2017-04-13T12:49:53.075Z,2572
2017-04-13T12:51:02.696Z,2452
2017-04-13T12:52:12.999Z,2444
2017-04-13T12:53:22.310Z,2440
2017-04-13T12:54:32.531Z,2684
2017-04-13T12:55:42.758Z,2760
2017-04-13T12:56:52.676Z,2916
2017-04-13T12:58:02.380Z,2960
2017-04-13T12:59:12.332Z,2676
2017-04-13T13:00:22.833Z,2412
2017-04-13T13:01:32.134Z,2300
2017-04-13T13:02:41.415Z,2384
2017-04-13T13:03:51.737Z,2348
2017-04-13T13:05:01.988Z,2108
2017-04-13T13:06:11.897Z,1788
2017-04-13T13:07:21.494Z,1520
2017-04-13T13:08:31.102Z,1348
2017-04-13T13:09:41.281Z,1324
2017-04-13T13:10:50.889Z,1332
2017-04-13T13:12:00.510Z,1284
2017-04-13T13:13:10.122Z,1216
2017-04-13T13:14:19.412Z,1144
2017-04-13T13:15:29.418Z,1024
2017-04-13T13:16:39.326Z,928
2017-04-13T13:17:48.941Z,868
2017-04-13T13:18:58.554Z,836
2017-04-13T13:20:08.841Z,836
2017-04-13T13:21:18.851Z,856
2017-04-13T13:22:28.760Z,864
2017-04-13T13:23:38.979Z,856
2017-04-13T13:24:48.577Z,864
2017-04-13T13:25:58.861Z,916
2017-04-13T13:27:08.867Z,916
2017-04-13T13:28:18.481Z,964
2017-04-13T13:29:28.403Z,1104
2017-04-13T13:30:38.312Z,1284
2017-04-13T13:31:48.296Z,1380
2017-04-13T13:32:58.311Z,1460
2017-04-13T13:34:08.525Z,1564
2017-04-13T13:35:18.748Z,1840
2017-04-13T13:36:28.648Z,1768
2017-04-13T13:37:38.259Z,1652
2017-04-13T13:38:47.686Z,1540
2017-04-13T13:39:56.998Z,1620
2017-04-13T13:41:07.236Z,1784
2017-04-13T13:42:16.843Z,1948
2017-04-13T13:43:26.177Z,2176
2017-04-13T13:44:35.913Z,2272
2017-04-13T13:45:45.224Z,2360
2017-04-13T13:46:54.830Z,2392
2017-04-13T13:48:04.432Z,2456
2017-04-13T13:49:14.150Z,2544
2017-04-13T13:50:23.884Z,2640
2017-04-13T13:51:33.792Z,2680
2017-04-13T13:52:43.725Z,2888
2017-04-13T13:53:53.025Z,2956
2017-04-13T13:55:02.944Z,3032
2017-04-13T13:56:12.655Z,2960
2017-04-13T13:57:21.670Z,2688
2017-04-13T13:58:31.889Z,2532
2017-04-13T13:59:41.192Z,2548
2017-04-13T14:00:51.455Z,2424
2017-04-13T14:02:01.466Z,2424
2017-04-13T14:03:11.380Z,2468
2017-04-13T14:04:21.299Z,2456
2017-04-13T14:05:30.585Z,2292
2017-04-13T14:06:40.548Z,1964
2017-04-13T14:07:50.927Z,1712
2017-04-13T14:09:00.538Z,1548
2017-04-13T14:10:10.137Z,1408
2017-04-13T14:11:19.433Z,1144
2017-04-13T14:12:29.034Z,996
2017-04-13T14:13:38.747Z,996
2017-04-13T14:14:48.361Z,1160
2017-04-13T14:15:57.973Z,1164
2017-04-13T14:17:07.582Z,1016
2017-04-13T14:18:17.187Z,996
2017-04-13T14:19:27.503Z,1084
2017-04-13T14:20:37.105Z,1264
2017-04-13T14:21:46.708Z,1392
2017-04-13T14:22:56.635Z,1444
2017-04-13T14:24:06.867Z,1484
2017-04-13T14:25:16.876Z,1636
2017-04-13T14:26:26.484Z,1908
2017-04-13T14:27:36.387Z,2068
2017-04-13T14:28:46.618Z,1988
2017-04-13T14:29:56.572Z,1936
2017-04-13T14:31:06.597Z,1864
2017-04-13T14:32:16.510Z,1808
2017-04-13T14:33:26.451Z,1792
2017-04-13T14:34:36.365Z,1760
2017-04-13T14:35:45.964Z,1780
2017-04-13T14:36:56.100Z,1720
2017-04-13T14:38:06.157Z,1664
2017-04-13T14:39:15.763Z,1392
2017-04-13T14:40:25.420Z,1256
2017-04-13T14:41:35.357Z,1316
2017-04-13T14:42:45.114Z,1496
2017-04-13T14:43:55.323Z,1572
2017-04-13T14:45:04.628Z,1760
2017-04-13T14:46:14.850Z,1840
2017-04-13T14:47:24.757Z,1752
2017-04-13T14:48:34.208Z,1696
2017-04-13T14:49:44.435Z,1620
2017-04-13T14:50:54.042Z,1744
2017-04-13T14:52:03.952Z,1820
2017-04-13T14:53:14.110Z,1728
2017-04-13T14:54:23.749Z,1552
2017-04-13T14:55:33.660Z,1364
2017-04-13T14:56:43.897Z,1352
2017-04-13T14:57:53.505Z,1476
2017-04-13T14:59:03.724Z,1584
2017-04-13T15:00:14.109Z,1712
2017-04-13T15:01:24.328Z,1856
2017-04-13T15:02:34.547Z,1912
2017-04-13T15:03:44.142Z,1888
2017-04-13T15:04:53.784Z,1972
2017-04-13T15:06:03.540Z,1800
2017-04-13T15:07:13.140Z,1676
2017-04-13T15:08:23.370Z,1616
2017-04-13T15:09:33.287Z,1544
2017-04-13T15:10:43.206Z,1560
2017-04-13T15:11:52.757Z,1596
2017-04-13T15:13:02.998Z,1604
2017-04-13T15:14:12.907Z,1604
2017-04-13T15:15:22.511Z,1568
2017-04-13T15:16:32.436Z,1480
2017-04-13T15:17:42.512Z,1416
2017-04-13T15:18:52.747Z,1312
2017-04-13T15:20:02.666Z,1160
2017-04-13T15:21:12.890Z,1048
2017-04-13T15:22:22.500Z,932
2017-04-13T15:23:32.255Z,828
2017-04-13T15:24:42.171Z,720
2017-04-13T15:25:51.762Z,692
2017-04-13T15:27:01.671Z,752
2017-04-13T15:28:11.582Z,840
2017-04-13T15:29:21.031Z,968
2017-04-13T15:30:31.009Z,1128
2017-04-13T15:31:41.252Z,1200
2017-04-13T15:32:51.157Z,1168
2017-04-13T15:34:01.363Z,1176
2017-04-13T15:35:11.745Z,1160
2017-04-13T15:36:21.958Z,1140
2017-04-13T15:37:31.878Z,1144
2017-04-13T15:38:42.084Z,1216
2017-04-13T15:39:51.685Z,1228
2017-04-13T15:41:01.734Z,1300
2017-04-13T15:42:11.634Z,1316
2017-04-13T15:43:21.555Z,1256
2017-04-13T15:44:31.473Z,1168
2017-04-13T15:45:41.096Z,1084
2017-04-13T15:46:50.862Z,972
2017-04-13T15:48:00.783Z,864
2017-04-13T15:49:11.004Z,776
2017-04-13T15:50:20.661Z,704
2017-04-13T15:51:30.886Z,636
2017-04-13T15:52:40.943Z,604
2017-04-13T15:53:51.154Z,600
2017-04-13T15:55:00.449Z,644
2017-04-13T15:56:10.074Z,652
2017-04-13T15:57:20.298Z,644
2017-04-13T15:58:30.377Z,620
2017-04-13T15:59:40.606Z,588
2017-04-13T16:00:50.245Z,596
2017-04-13T16:02:00.454Z,688
2017-04-13T16:03:10.375Z,780
2017-04-13T16:04:20.121Z,820
2017-04-13T16:05:30.020Z,812